createdAt,value
2018-09-11T00:02:12.908Z,17.90
2018-09-11T00:04:41.176Z,18.00
2018-09-11T00:07:09.386Z,18.00
2018-09-11T00:09:37.586Z,18.00
2018-09-11T00:12:05.845Z,17.90
2018-09-11T00:14:34.110Z,17.90
2018-09-11T00:17:02.325Z,17.90
2018-09-11T00:19:31.414Z,17.90
2018-09-11T00:22:00.437Z,17.80
2018-09-11T00:24:28.615Z,17.90
2018-09-11T00:26:56.929Z,17.80
2018-09-11T00:29:25.105Z,17.80
2018-09-11T00:31:53.313Z,17.80
2018-09-11T00:34:21.526Z,17.80
2018-09-11T00:36:49.747Z,17.80
2018-09-11T00:39:17.945Z,17.70
2018-09-11T00:41:46.129Z,17.70
2018-09-11T00:44:14.328Z,17.70
2018-09-11T00:46:42.526Z,17.70
2018-09-11T00:49:10.775Z,17.60
2018-09-11T00:51:39.181Z,17.60
2018-09-11T00:54:07.375Z,17.60
2018-09-11T00:56:35.559Z,17.60
2018-09-11T00:59:03.773Z,17.60
2018-09-11T01:01:31.970Z,17.60
2018-09-11T01:04:00.223Z,17.60
2018-09-11T01:06:28.381Z,17.60
2018-09-11T01:08:56.586Z,17.60
2018-09-11T01:11:25.105Z,17.60
2018-09-11T01:13:53.306Z,17.60
2018-09-11T01:16:21.521Z,17.60
2018-09-11T01:18:49.710Z,17.60
2018-09-11T01:21:17.893Z,17.60
2018-09-11T01:23:46.088Z,17.60
2018-09-11T01:26:14.280Z,17.60
2018-09-11T01:28:42.477Z,17.50
2018-09-11T01:31:10.662Z,17.40
2018-09-11T01:33:39.136Z,17.40
2018-09-11T01:36:07.415Z,17.40
2018-09-11T01:38:35.635Z,17.40
2018-09-11T01:41:03.846Z,17.40
2018-09-11T01:43:32.041Z,17.40
2018-09-11T01:46:00.309Z,17.40
2018-09-11T01:48:29.241Z,17.40
2018-09-11T01:50:57.442Z,17.40
2018-09-11T01:53:25.841Z,17.40
2018-09-11T01:55:54.098Z,17.40
2018-09-11T01:58:22.281Z,17.40
2018-09-11T02:00:51.009Z,17.40
2018-09-11T02:03:19.185Z,17.40
2018-09-11T02:05:47.390Z,17.40
2018-09-11T02:08:15.565Z,17.40
2018-09-11T02:10:43.773Z,17.40
2018-09-11T02:13:11.960Z,17.40
2018-09-11T02:15:40.169Z,17.40
2018-09-11T02:18:08.414Z,17.40
2018-09-11T02:20:36.600Z,17.30
2018-09-11T02:23:04.793Z,17.40
2018-09-11T02:25:32.989Z,17.40
2018-09-11T02:28:01.161Z,17.30
2018-09-11T02:30:29.335Z,17.30
2018-09-11T02:32:57.509Z,17.30
2018-09-11T02:35:25.839Z,17.30
2018-09-11T02:37:53.993Z,17.20
2018-09-11T02:40:22.305Z,17.20
2018-09-11T02:42:50.499Z,17.20
2018-09-11T02:45:22.563Z,17.20
2018-09-11T02:47:51.558Z,17.10
2018-09-11T02:50:19.741Z,17.10
2018-09-11T02:52:47.945Z,17.10
2018-09-11T02:55:16.173Z,17.00
2018-09-11T02:57:44.374Z,17.10
2018-09-11T03:00:12.651Z,17.10
2018-09-11T03:02:41.093Z,17.10
2018-09-11T03:05:09.333Z,17.00
2018-09-11T03:07:37.556Z,17.00
2018-09-11T03:10:05.951Z,17.00
2018-09-11T03:12:34.204Z,17.00
2018-09-11T03:15:02.451Z,17.00
2018-09-11T03:17:30.667Z,17.00
2018-09-11T03:19:58.905Z,16.90
2018-09-11T03:22:27.101Z,16.90
2018-09-11T03:24:55.563Z,16.80
2018-09-11T03:27:23.738Z,16.80
2018-09-11T03:29:51.958Z,16.70
2018-09-11T03:32:20.133Z,16.70
2018-09-11T03:34:48.309Z,16.60
2018-09-11T03:37:16.529Z,16.50
2018-09-11T03:39:44.714Z,16.50
2018-09-11T03:42:12.993Z,16.50
2018-09-11T03:44:41.185Z,16.60
2018-09-11T03:47:09.423Z,16.50
2018-09-11T03:49:37.626Z,16.50
2018-09-11T03:52:05.809Z,16.50
2018-09-11T03:54:34.005Z,16.50
2018-09-11T03:57:02.189Z,16.50
2018-09-11T03:59:30.385Z,16.60
2018-09-11T04:01:58.581Z,16.60
2018-09-11T04:04:26.773Z,16.60
2018-09-11T04:06:54.961Z,16.60
2018-09-11T04:09:23.589Z,16.60
2018-09-11T04:11:51.783Z,16.50
2018-09-11T04:14:19.949Z,16.60
2018-09-11T04:16:48.138Z,16.60
2018-09-11T04:19:16.333Z,16.60
2018-09-11T04:21:44.566Z,16.60
2018-09-11T04:24:12.745Z,16.60
2018-09-11T04:26:40.949Z,16.60
2018-09-11T04:29:09.317Z,16.60
2018-09-11T04:31:37.818Z,16.60
2018-09-11T04:34:06.025Z,16.60
2018-09-11T04:36:34.300Z,16.70
2018-09-11T04:39:02.457Z,16.60
2018-09-11T04:41:30.653Z,16.60
2018-09-11T04:43:58.874Z,16.60
2018-09-11T04:46:27.133Z,16.70
2018-09-11T04:48:55.385Z,16.70
2018-09-11T04:51:23.581Z,16.70
2018-09-11T04:53:52.025Z,16.70
2018-09-11T04:56:20.255Z,16.70
2018-09-11T04:58:48.449Z,16.70
2018-09-11T05:01:16.637Z,16.70
2018-09-11T05:03:44.879Z,16.70
2018-09-11T05:06:13.058Z,16.70
2018-09-11T05:08:41.229Z,16.80
2018-09-11T05:11:09.442Z,16.80
2018-09-11T05:13:37.644Z,16.80
2018-09-11T05:16:05.873Z,16.80
2018-09-11T05:18:34.053Z,16.90
2018-09-11T05:21:02.485Z,16.90
2018-09-11T05:23:30.713Z,16.90
2018-09-11T05:25:58.959Z,17.00
2018-09-11T05:28:27.139Z,17.00
2018-09-11T05:30:55.326Z,17.00
2018-09-11T05:33:23.513Z,17.00
2018-09-11T05:35:51.722Z,17.10
2018-09-11T05:38:20.197Z,17.10
2018-09-11T05:40:48.406Z,17.10
2018-09-11T05:43:16.649Z,17.10
2018-09-11T05:45:44.868Z,17.20
2018-09-11T05:48:13.122Z,17.20
2018-09-11T05:50:41.349Z,17.30
2018-09-11T05:53:09.569Z,17.30
2018-09-11T05:55:37.932Z,17.40
2018-09-11T05:58:06.182Z,17.40
2018-09-11T06:00:34.709Z,17.50
2018-09-11T06:03:03.106Z,17.50
2018-09-11T06:05:31.329Z,17.60
2018-09-11T06:07:59.487Z,17.60
2018-09-11T06:10:27.681Z,17.70
2018-09-11T06:12:55.962Z,17.70
2018-09-11T06:15:24.161Z,17.70
2018-09-11T06:17:52.339Z,17.80
2018-09-11T06:20:20.537Z,17.90
2018-09-11T06:22:49.178Z,17.90
2018-09-11T06:25:17.597Z,18.10
2018-09-11T06:27:45.826Z,18.20
2018-09-11T06:30:14.259Z,18.30
2018-09-11T06:32:42.428Z,18.40
2018-09-11T06:35:10.754Z,18.60
2018-09-11T06:37:39.288Z,18.70
2018-09-11T06:40:07.485Z,18.70
2018-09-11T06:42:35.887Z,18.80
2018-09-11T06:45:04.364Z,18.80
2018-09-11T06:47:32.577Z,18.90
2018-09-11T06:50:00.819Z,18.90
2018-09-11T06:52:29.005Z,19.10
2018-09-11T06:54:57.210Z,19.20
2018-09-11T06:57:25.506Z,19.40
2018-09-11T06:59:54.900Z,19.40
2018-09-11T07:02:23.118Z,19.30
2018-09-11T07:04:51.449Z,19.40
2018-09-11T07:07:19.843Z,19.40
2018-09-11T07:09:48.065Z,19.40
2018-09-11T07:12:16.284Z,19.60
2018-09-11T07:14:44.518Z,19.60
2018-09-11T07:17:12.745Z,19.70
2018-09-11T07:19:40.997Z,19.80
2018-09-11T07:22:09.196Z,19.90
2018-09-11T07:24:37.642Z,20.00
2018-09-11T07:27:05.845Z,20.10
2018-09-11T07:29:34.341Z,20.10
2018-09-11T07:32:02.530Z,20.30
2018-09-11T07:34:30.742Z,20.50
2018-09-11T07:36:58.949Z,20.60
2018-09-11T07:39:27.174Z,20.60
2018-09-11T07:41:55.403Z,20.70
2018-09-11T07:44:23.591Z,20.80
2018-09-11T07:46:51.798Z,20.80
2018-09-11T07:49:20.044Z,20.90
2018-09-11T07:51:48.525Z,21.00
2018-09-11T07:54:16.718Z,21.00
2018-09-11T07:56:45.261Z,21.00
2018-09-11T07:59:13.474Z,21.00
2018-09-11T08:01:41.705Z,21.00
2018-09-11T08:04:09.906Z,21.10
2018-09-11T08:06:38.097Z,21.30
2018-09-11T08:09:08.890Z,21.40
2018-09-11T08:11:37.371Z,21.50
2018-09-11T08:14:05.926Z,21.40
2018-09-11T08:16:34.295Z,21.40
2018-09-11T08:19:02.610Z,21.60
2018-09-11T08:21:30.797Z,21.80
2018-09-11T08:23:59.125Z,21.90
2018-09-11T08:26:27.641Z,21.90
2018-09-11T08:28:56.185Z,22.10
2018-09-11T08:31:24.400Z,22.20
2018-09-11T08:33:52.593Z,22.50
2018-09-11T08:36:21.158Z,22.60
2018-09-11T08:38:49.336Z,22.70
2018-09-11T08:41:17.799Z,22.70
2018-09-11T08:43:46.298Z,22.70
2018-09-11T08:46:14.481Z,22.70
2018-09-11T08:48:42.747Z,22.80
2018-09-11T08:51:11.694Z,22.80
2018-09-11T08:53:41.408Z,22.80
2018-09-11T08:56:09.632Z,23.00
2018-09-11T08:58:37.958Z,23.10
2018-09-11T09:01:06.844Z,23.30
2018-09-11T09:03:35.086Z,23.50
2018-09-11T09:06:03.548Z,23.70
2018-09-11T09:08:31.757Z,23.70
2018-09-11T09:10:59.950Z,23.80
2018-09-11T09:13:28.256Z,23.90
2018-09-11T09:15:56.474Z,23.90
2018-09-11T09:18:25.131Z,23.90
2018-09-11T09:20:53.527Z,24.00
2018-09-11T09:23:21.698Z,24.10
2018-09-11T09:25:49.961Z,24.30
2018-09-11T09:28:18.256Z,24.20
2018-09-11T09:30:46.449Z,24.20
2018-09-11T09:33:14.674Z,24.30
2018-09-11T09:35:43.173Z,24.30
2018-09-11T09:38:11.345Z,24.40
2018-09-11T09:40:39.663Z,24.40
2018-09-11T09:43:07.918Z,24.40
2018-09-11T09:45:36.122Z,24.40
2018-09-11T09:48:04.633Z,24.50
2018-09-11T09:50:33.078Z,24.60
2018-09-11T09:53:01.313Z,24.70
2018-09-11T09:55:29.486Z,24.80
2018-09-11T09:57:57.963Z,24.70
2018-09-11T10:00:31.536Z,24.80
2018-09-11T10:02:59.971Z,24.80
2018-09-11T10:05:28.219Z,24.80
2018-09-11T10:07:56.558Z,24.80
2018-09-11T10:10:24.774Z,24.80
2018-09-11T10:12:53.049Z,25.10
2018-09-11T10:15:21.275Z,25.20
2018-09-11T10:17:49.502Z,25.40
2018-09-11T10:20:17.713Z,25.60
2018-09-11T10:22:45.950Z,25.70
2018-09-11T10:25:14.446Z,25.80
2018-09-11T10:27:42.728Z,25.80
2018-09-11T10:30:10.855Z,26.00
2018-09-11T10:32:39.069Z,26.00
2018-09-11T10:35:07.473Z,26.10
2018-09-11T10:37:35.682Z,26.20
2018-09-11T10:40:04.251Z,26.50
2018-09-11T10:42:32.548Z,26.80
2018-09-11T10:45:00.800Z,27.30
2018-09-11T10:47:29.362Z,27.80
2018-09-11T10:49:57.552Z,28.30
2018-09-11T10:52:25.764Z,28.80
2018-09-11T10:54:53.990Z,29.30
2018-09-11T10:57:22.433Z,30.10
2018-09-11T10:59:50.621Z,30.90
2018-09-11T11:02:18.853Z,32.00
2018-09-11T11:04:47.062Z,32.60
2018-09-11T11:07:15.568Z,33.10
2018-09-11T11:09:44.226Z,33.70
2018-09-11T11:12:12.585Z,34.00
2018-09-11T11:14:40.810Z,34.40
2018-09-11T11:17:09.396Z,34.60
2018-09-11T11:19:37.566Z,34.40
2018-09-11T11:22:05.915Z,35.10
2018-09-11T11:24:34.295Z,36.00
2018-09-11T11:27:02.557Z,37.60
2018-09-11T11:29:30.918Z,38.60
2018-09-11T11:31:59.170Z,39.30
2018-09-11T11:34:27.384Z,39.30
2018-09-11T11:36:56.058Z,39.50
2018-09-11T11:39:24.136Z,39.60
2018-09-11T11:41:52.460Z,39.20
2018-09-11T11:44:20.563Z,39.30
2018-09-11T11:46:49.087Z,40.40
2018-09-11T11:49:17.342Z,41.40
2018-09-11T11:51:45.641Z,42.70
2018-09-11T11:54:13.974Z,43.40
2018-09-11T11:56:42.296Z,43.60
2018-09-11T11:59:10.492Z,43.90
2018-09-11T12:01:38.915Z,44.10
2018-09-11T12:04:07.180Z,44.40
2018-09-11T12:06:35.385Z,44.60
2018-09-11T12:09:04.495Z,44.60
2018-09-11T12:11:32.736Z,44.50
2018-09-11T12:14:01.179Z,44.10
2018-09-11T12:16:29.938Z,44.00
2018-09-11T12:18:58.273Z,44.50
2018-09-11T12:21:26.489Z,45.10
2018-09-11T12:23:54.771Z,44.50
2018-09-11T12:26:23.143Z,44.50
2018-09-11T12:28:51.334Z,44.70
2018-09-11T12:31:19.553Z,44.70
2018-09-11T12:33:48.059Z,44.70
2018-09-11T12:36:16.278Z,45.00
2018-09-11T12:38:44.834Z,45.50
2018-09-11T12:41:13.055Z,45.90
2018-09-11T12:43:41.457Z,46.10
2018-09-11T12:46:09.791Z,46.30
2018-09-11T12:48:37.970Z,46.40
2018-09-11T12:51:06.294Z,46.70
2018-09-11T12:53:34.678Z,46.60
2018-09-11T12:56:03.052Z,46.30
2018-09-11T12:58:31.248Z,46.40
2018-09-11T13:00:59.634Z,46.60
2018-09-11T13:03:28.608Z,46.80
2018-09-11T13:05:56.922Z,47.10
2018-09-11T13:08:25.275Z,47.60
2018-09-11T13:10:53.503Z,47.30
2018-09-11T13:13:21.708Z,47.40
2018-09-11T13:15:50.134Z,47.40
2018-09-11T13:18:18.325Z,47.20
2018-09-11T13:20:46.697Z,47.40
2018-09-11T13:23:14.977Z,47.40
2018-09-11T13:25:43.158Z,47.40
2018-09-11T13:28:11.429Z,47.50
2018-09-11T13:30:39.616Z,47.70
2018-09-11T13:33:07.850Z,47.70
2018-09-11T13:35:36.313Z,47.90
2018-09-11T13:38:04.522Z,47.80
2018-09-11T13:40:32.744Z,47.60
2018-09-11T13:43:01.190Z,47.60
2018-09-11T13:45:29.521Z,47.90
2018-09-11T13:47:57.961Z,48.20
2018-09-11T13:50:26.119Z,48.40
2018-09-11T13:52:54.463Z,48.10
2018-09-11T13:55:22.854Z,48.50
2018-09-11T13:57:51.108Z,49.00
2018-09-11T14:00:19.390Z,49.20
2018-09-11T14:02:47.585Z,49.50
2018-09-11T14:05:17.985Z,49.90
2018-09-11T14:07:46.206Z,50.70
2018-09-11T14:10:14.480Z,51.10
2018-09-11T14:12:43.106Z,51.30
2018-09-11T14:15:11.341Z,50.90
2018-09-11T14:17:39.594Z,50.80
2018-09-11T14:20:08.005Z,50.70
2018-09-11T14:22:36.330Z,50.40
2018-09-11T14:25:04.549Z,50.30
2018-09-11T14:27:32.929Z,49.90
2018-09-11T14:30:01.121Z,50.00
2018-09-11T14:32:29.493Z,50.30
2018-09-11T14:34:57.908Z,50.80
2018-09-11T14:37:26.134Z,51.20
2018-09-11T14:39:54.424Z,51.20
2018-09-11T14:42:22.744Z,51.40
2018-09-11T14:44:51.116Z,51.50
2018-09-11T14:47:20.469Z,51.20
2018-09-11T14:49:48.945Z,51.20
2018-09-11T14:52:17.165Z,51.70
2018-09-11T14:54:45.432Z,52.00
2018-09-11T14:57:13.734Z,52.30
2018-09-11T14:59:41.930Z,52.40
2018-09-11T15:02:10.181Z,52.30
2018-09-11T15:04:38.375Z,52.20
2018-09-11T15:07:06.753Z,51.90
2018-09-11T15:09:35.014Z,51.50
2018-09-11T15:12:03.569Z,51.20
2018-09-11T15:14:31.966Z,51.00
2018-09-11T15:17:00.451Z,50.90
2018-09-11T15:19:28.629Z,50.90
2018-09-11T15:21:56.937Z,50.90
2018-09-11T15:24:25.174Z,50.80
2018-09-11T15:26:53.841Z,50.40
2018-09-11T15:29:22.205Z,48.40
2018-09-11T15:31:50.424Z,45.80
2018-09-11T15:34:19.109Z,43.10
2018-09-11T15:36:47.295Z,41.00
2018-09-11T15:39:15.497Z,38.50
2018-09-11T15:41:43.736Z,36.80
2018-09-11T15:44:11.920Z,35.30
2018-09-11T15:46:40.380Z,34.30
2018-09-11T15:49:08.747Z,33.40
2018-09-11T15:51:36.983Z,32.40
2018-09-11T15:54:05.193Z,31.80
2018-09-11T15:56:33.597Z,31.40
2018-09-11T15:59:01.793Z,31.10
2018-09-11T16:01:30.002Z,31.00
2018-09-11T16:03:58.209Z,30.70
2018-09-11T16:06:26.670Z,30.40
2018-09-11T16:08:54.929Z,30.00
2018-09-11T16:11:23.153Z,29.70
2018-09-11T16:13:51.407Z,29.50
2018-09-11T16:16:19.613Z,29.50
2018-09-11T16:18:48.614Z,29.50
2018-09-11T16:21:16.852Z,29.40
2018-09-11T16:23:45.086Z,29.40
2018-09-11T16:26:13.317Z,29.30
2018-09-11T16:28:41.576Z,29.20
2018-09-11T16:31:09.773Z,29.10
2018-09-11T16:33:38.077Z,29.00
2018-09-11T16:36:06.441Z,28.80
2018-09-11T16:38:34.621Z,28.70
2018-09-11T16:41:02.901Z,28.70
2018-09-11T16:43:31.101Z,28.60
2018-09-11T16:45:59.299Z,28.50
2018-09-11T16:48:27.497Z,28.40
2018-09-11T16:50:55.677Z,28.30
2018-09-11T16:53:23.885Z,28.10
2018-09-11T16:55:52.086Z,28.00
2018-09-11T16:58:20.294Z,27.80
2018-09-11T17:00:48.510Z,27.70
2018-09-11T17:03:16.901Z,27.70
2018-09-11T17:05:45.091Z,27.60
2018-09-11T17:08:13.496Z,27.40
2018-09-11T17:10:41.922Z,27.20
2018-09-11T17:13:10.047Z,27.10
2018-09-11T17:15:38.237Z,26.90
2018-09-11T17:18:06.417Z,26.80
2018-09-11T17:20:34.637Z,26.70
2018-09-11T17:23:03.009Z,26.60
2018-09-11T17:25:31.247Z,26.50
2018-09-11T17:27:59.778Z,26.40
2018-09-11T17:30:28.038Z,26.40
2018-09-11T17:32:56.420Z,26.30
2018-09-11T17:35:24.622Z,26.20
2018-09-11T17:37:53.119Z,26.00
2018-09-11T17:40:21.293Z,26.00
2018-09-11T17:42:49.634Z,25.90
2018-09-11T17:45:17.827Z,25.80
2018-09-11T17:47:46.345Z,25.70
2018-09-11T17:50:14.529Z,25.50
2018-09-11T17:52:42.952Z,25.40
2018-09-11T17:55:11.161Z,25.30
2018-09-11T17:57:39.369Z,25.20
2018-09-11T18:00:07.912Z,25.10
2018-09-11T18:02:36.158Z,24.90
2018-09-11T18:05:05.286Z,24.80
2018-09-11T18:07:33.815Z,24.80
2018-09-11T18:10:02.161Z,24.70
2018-09-11T18:12:30.729Z,24.50
2018-09-11T18:14:58.909Z,24.40
2018-09-11T18:17:27.129Z,24.30
2018-09-11T18:19:55.309Z,24.20
2018-09-11T18:22:23.521Z,24.20
2018-09-11T18:24:51.925Z,24.10
2018-09-11T18:27:20.147Z,24.10
2018-09-11T18:29:48.354Z,24.00
2018-09-11T18:32:16.851Z,23.90
2018-09-11T18:34:45.076Z,23.80
2018-09-11T18:37:13.627Z,23.80
2018-09-11T18:39:41.786Z,23.70
2018-09-11T18:42:10.029Z,23.70
2018-09-11T18:44:38.256Z,23.50
2018-09-11T18:47:06.488Z,23.40
2018-09-11T18:49:34.674Z,23.30
2018-09-11T18:52:02.874Z,23.20
2018-09-11T18:54:31.388Z,23.10
2018-09-11T18:56:59.847Z,23.00
2018-09-11T18:59:28.158Z,22.90
2018-09-11T19:01:56.545Z,22.80
2018-09-11T19:04:24.745Z,22.60
2018-09-11T19:06:52.948Z,22.60
2018-09-11T19:09:21.163Z,22.50
2018-09-11T19:11:49.359Z,22.40
2018-09-11T19:14:17.599Z,22.40
2018-09-11T19:16:45.862Z,22.30
2018-09-11T19:19:14.188Z,22.20
2018-09-11T19:21:42.842Z,22.10
2018-09-11T19:24:11.253Z,22.10
2018-09-11T19:26:39.631Z,22.00
2018-09-11T19:29:07.817Z,22.00
2018-09-11T19:31:36.013Z,21.90
2018-09-11T19:34:04.218Z,21.90
2018-09-11T19:36:32.405Z,21.90
2018-09-11T19:39:00.612Z,21.80
2018-09-11T19:41:28.793Z,21.80
2018-09-11T19:43:57.002Z,21.70
2018-09-11T19:46:25.209Z,21.70
2018-09-11T19:48:53.405Z,21.60
2018-09-11T19:51:21.597Z,21.60
2018-09-11T19:53:49.825Z,21.50
2018-09-11T19:56:18.029Z,21.40
2018-09-11T19:58:46.276Z,21.30
2018-09-11T20:01:14.462Z,21.30
2018-09-11T20:03:42.649Z,21.20
2018-09-11T20:06:10.845Z,21.30
2018-09-11T20:08:39.047Z,21.30
2018-09-11T20:11:08.249Z,21.20
2018-09-11T20:13:36.441Z,21.20
2018-09-11T20:16:04.666Z,21.20
2018-09-11T20:18:32.897Z,21.20
2018-09-11T20:21:01.984Z,21.10
2018-09-11T20:23:30.498Z,21.10
2018-09-11T20:25:58.741Z,21.10
2018-09-11T20:28:26.933Z,21.00
2018-09-11T20:30:55.328Z,20.90
2018-09-11T20:33:23.706Z,20.80
2018-09-11T20:35:51.902Z,20.80
2018-09-11T20:38:20.126Z,20.80
2018-09-11T20:40:48.332Z,20.80
2018-09-11T20:43:16.781Z,20.80
2018-09-11T20:45:45.037Z,20.70
2018-09-11T20:48:13.237Z,20.60
2018-09-11T20:50:41.615Z,20.60
2018-09-11T20:53:09.809Z,20.60
2018-09-11T20:55:38.033Z,20.50
2018-09-11T20:58:06.230Z,20.50
2018-09-11T21:00:34.434Z,20.40
2018-09-11T21:03:02.641Z,20.40
2018-09-11T21:05:30.852Z,20.30
2018-09-11T21:07:59.213Z,20.30
2018-09-11T21:10:27.438Z,20.30
2018-09-11T21:12:55.805Z,20.20
2018-09-11T21:15:23.995Z,20.10
2018-09-11T21:17:52.209Z,20.10
2018-09-11T21:20:20.630Z,20.10
2018-09-11T21:22:48.892Z,20.00
2018-09-11T21:25:17.090Z,20.00
2018-09-11T21:27:45.333Z,20.00
2018-09-11T21:30:13.690Z,19.90
2018-09-11T21:32:41.928Z,19.90
2018-09-11T21:35:10.102Z,19.90
2018-09-11T21:37:38.323Z,19.90
2018-09-11T21:40:06.557Z,20.00
2018-09-11T21:42:34.740Z,20.00
2018-09-11T21:45:02.966Z,20.00
2018-09-11T21:47:31.165Z,20.00
2018-09-11T21:49:59.624Z,20.00
2018-09-11T21:52:27.852Z,20.10
2018-09-11T21:54:56.317Z,20.00
2018-09-11T21:57:24.521Z,20.00
2018-09-11T21:59:52.699Z,20.00
2018-09-11T22:02:20.914Z,19.90
2018-09-11T22:04:49.107Z,19.90
2018-09-11T22:07:17.323Z,19.90
2018-09-11T22:09:45.521Z,19.80
2018-09-11T22:12:13.763Z,19.80
2018-09-11T22:14:42.039Z,19.70
2018-09-11T22:17:10.241Z,19.70
2018-09-11T22:19:38.625Z,19.70
2018-09-11T22:22:06.847Z,19.60
2018-09-11T22:24:35.501Z,19.40
2018-09-11T22:27:03.735Z,19.20
2018-09-11T22:29:31.936Z,19.10
2018-09-11T22:32:00.260Z,19.00
2018-09-11T22:34:28.450Z,18.90
2018-09-11T22:36:56.837Z,18.70
2018-09-11T22:39:25.039Z,18.60
2018-09-11T22:41:53.233Z,18.50
2018-09-11T22:44:21.658Z,18.50
2018-09-11T22:46:49.869Z,18.40
2018-09-11T22:49:18.066Z,18.40
2018-09-11T22:51:46.391Z,18.30
2018-09-11T22:54:14.593Z,18.30
2018-09-11T22:56:42.813Z,18.20
2018-09-11T22:59:11.008Z,18.20
2018-09-11T23:01:39.197Z,18.20
2018-09-11T23:04:07.417Z,18.10
2018-09-11T23:06:35.617Z,18.10
2018-09-11T23:09:04.977Z,18.10
2018-09-11T23:11:33.210Z,18.10
2018-09-11T23:14:01.415Z,18.10
2018-09-11T23:16:29.610Z,18.20
2018-09-11T23:18:57.800Z,18.20
2018-09-11T23:21:26.345Z,18.20
2018-09-11T23:23:54.557Z,18.10
2018-09-11T23:26:22.775Z,18.10
2018-09-11T23:28:50.954Z,18.00
2018-09-11T23:31:19.193Z,18.00
2018-09-11T23:33:47.376Z,18.10
2018-09-11T23:36:15.582Z,18.00
2018-09-11T23:38:44.009Z,18.00
2018-09-11T23:41:12.205Z,18.00
2018-09-11T23:43:40.601Z,18.00
2018-09-11T23:46:08.801Z,17.90
2018-09-11T23:48:37.037Z,17.90
2018-09-11T23:51:05.297Z,17.80
2018-09-11T23:53:33.489Z,17.80
2018-09-11T23:56:01.718Z,17.80
2018-09-11T23:58:29.949Z,17.80
